createdAt,value
2023-02-11T00:00:40.054Z,87.34
2023-02-11T00:03:06.893Z,87.69
2023-02-11T00:05:33.730Z,87.10
2023-02-11T00:08:00.107Z,87.54
2023-02-11T00:10:26.482Z,87.60
2023-02-11T00:12:52.811Z,87.24
2023-02-11T00:15:19.132Z,87.36
2023-02-11T00:17:45.451Z,87.93
2023-02-11T00:20:11.760Z,87.68
2023-02-11T00:22:38.065Z,87.61
2023-02-11T00:25:04.643Z,87.42
2023-02-11T00:27:30.960Z,87.55
2023-02-11T00:29:57.278Z,87.76
2023-02-11T00:32:23.603Z,88.05
2023-02-11T00:34:52.540Z,88.41
2023-02-11T00:37:18.853Z,88.32
2023-02-11T00:39:45.206Z,87.90
2023-02-11T00:42:14.482Z,87.97
2023-02-11T00:44:40.888Z,88.22
2023-02-11T00:47:07.189Z,88.71
2023-02-11T00:49:33.657Z,88.91
2023-02-11T00:51:59.972Z,88.64
2023-02-11T00:54:28.394Z,88.81
2023-02-11T00:56:55.986Z,88.79
2023-02-11T00:59:22.293Z,88.56
2023-02-11T01:01:48.640Z,89.28
2023-02-11T01:04:15.008Z,89.21
2023-02-11T01:06:41.321Z,89.31
2023-02-11T01:09:07.636Z,89.75
2023-02-11T01:11:33.958Z,90.06
2023-02-11T01:14:00.292Z,89.99
2023-02-11T01:16:26.607Z,90.65
2023-02-11T01:18:52.933Z,90.55
2023-02-11T01:21:19.319Z,91.26
2023-02-11T01:23:45.627Z,91.94
2023-02-11T01:26:12.145Z,91.76
2023-02-11T01:28:38.582Z,92.42
2023-02-11T01:31:05.077Z,92.54
2023-02-11T01:33:31.515Z,92.84
2023-02-11T01:36:02.885Z,93.11
2023-02-11T01:38:29.922Z,93.47
2023-02-11T01:40:59.992Z,93.76
2023-02-11T01:43:31.009Z,94.23
2023-02-11T01:46:17.523Z,94.41
2023-02-11T01:48:47.669Z,94.23
2023-02-11T01:51:23.250Z,94.35
2023-02-11T01:53:49.976Z,94.42
2023-02-11T01:56:18.053Z,94.02
2023-02-11T01:58:47.081Z,94.47
2023-02-11T02:01:17.652Z,94.28
2023-02-11T02:03:47.620Z,93.84
2023-02-11T02:06:24.636Z,93.90
2023-02-11T02:09:01.136Z,94.06
2023-02-11T02:11:27.701Z,94.10
2023-02-11T02:13:54.012Z,94.19
2023-02-11T02:16:24.849Z,94.27
2023-02-11T02:19:13.658Z,94.24
2023-02-11T02:21:59.193Z,94.34
2023-02-11T02:24:43.477Z,93.90
2023-02-11T02:27:47.539Z,94.23
2023-02-11T02:30:55.744Z,94.54
2023-02-11T02:34:00.563Z,94.22
2023-02-11T02:36:57.067Z,94.04
2023-02-11T02:39:28.485Z,93.72
2023-02-11T02:41:56.738Z,93.62
2023-02-11T02:44:23.885Z,93.70
2023-02-11T02:46:50.249Z,94.09
2023-02-11T02:49:17.167Z,94.34
2023-02-11T02:52:07.075Z,94.03
2023-02-11T02:54:53.005Z,94.13
2023-02-11T02:57:37.625Z,94.39
2023-02-11T03:00:19.087Z,94.59
2023-02-11T03:03:15.623Z,94.80
2023-02-11T03:05:54.371Z,94.70
2023-02-11T03:09:05.883Z,94.96
2023-02-11T03:11:34.174Z,95.03
2023-02-11T03:14:04.571Z,95.23
2023-02-11T03:16:31.074Z,95.48
2023-02-11T03:19:03.681Z,95.30
2023-02-11T03:21:34.187Z,95.53
2023-02-11T03:24:05.739Z,95.59
2023-02-11T03:26:46.438Z,95.89
2023-02-11T03:29:18.607Z,96.30
2023-02-11T03:32:03.581Z,96.95
2023-02-11T03:34:37.808Z,97.10
2023-02-11T03:37:17.660Z,97.09
2023-02-11T03:39:54.966Z,97.41
2023-02-11T03:42:26.356Z,97.82
2023-02-11T03:45:00.323Z,98.32
2023-02-11T03:47:29.284Z,98.75
2023-02-11T03:49:58.794Z,99.02
2023-02-11T03:52:26.099Z,99.03
2023-02-11T03:54:55.988Z,99.08
2023-02-11T03:57:22.316Z,98.90
2023-02-11T03:59:59.260Z,98.83
2023-02-11T04:02:33.118Z,98.88
2023-02-11T04:04:59.998Z,98.96
2023-02-11T04:07:27.204Z,99.03
2023-02-11T04:09:53.720Z,98.83
2023-02-11T04:12:20.705Z,98.89
2023-02-11T04:14:47.035Z,99.01
2023-02-11T04:17:13.450Z,99.23
2023-02-11T04:19:39.807Z,98.42
2023-02-11T04:22:07.092Z,98.22
2023-02-11T04:24:33.747Z,98.22
2023-02-11T04:27:00.093Z,97.03
2023-02-11T04:29:26.645Z,97.19
2023-02-11T04:31:52.964Z,96.93
2023-02-11T04:34:19.294Z,96.35
2023-02-11T04:36:45.594Z,96.45
2023-02-11T04:39:11.988Z,96.69
2023-02-11T04:41:38.425Z,96.56
2023-02-11T04:44:05.368Z,95.83
2023-02-11T04:46:31.707Z,95.51
2023-02-11T04:48:58.170Z,95.50
2023-02-11T04:51:24.793Z,95.12
2023-02-11T04:53:51.132Z,95.13
2023-02-11T04:56:17.477Z,94.78
2023-02-11T04:58:43.792Z,94.43
2023-02-11T05:01:13.471Z,94.53
2023-02-11T05:03:40.317Z,94.15
2023-02-11T05:06:07.043Z,93.86
2023-02-11T05:08:33.422Z,94.18
2023-02-11T05:10:59.930Z,94.44
2023-02-11T05:13:26.217Z,94.34
2023-02-11T05:15:52.993Z,94.20
2023-02-11T05:18:19.406Z,94.25
2023-02-11T05:20:45.705Z,94.17
2023-02-11T05:23:12.286Z,94.06
2023-02-11T05:25:38.933Z,93.60
2023-02-11T05:28:06.241Z,93.67
2023-02-11T05:30:32.782Z,93.46
2023-02-11T05:32:59.077Z,93.41
2023-02-11T05:35:25.542Z,93.63
2023-02-11T05:37:51.847Z,92.93
2023-02-11T05:40:18.244Z,93.16
2023-02-11T05:42:44.523Z,93.12
2023-02-11T05:45:10.847Z,92.64
2023-02-11T05:47:37.139Z,92.89
2023-02-11T05:50:03.727Z,92.83
2023-02-11T05:52:30.054Z,93.06
2023-02-11T05:54:56.363Z,93.10
2023-02-11T05:57:22.999Z,92.93
2023-02-11T05:59:49.309Z,92.55
2023-02-11T06:02:15.687Z,92.73
2023-02-11T06:04:42.056Z,92.70
2023-02-11T06:07:08.398Z,92.98
2023-02-11T06:09:34.709Z,93.20
2023-02-11T06:12:01.018Z,93.20
2023-02-11T06:14:27.332Z,92.90
2023-02-11T06:16:53.659Z,92.22
2023-02-11T06:19:19.996Z,92.32
2023-02-11T06:21:46.342Z,92.45
2023-02-11T06:24:12.980Z,92.83
2023-02-11T06:26:39.314Z,92.80
2023-02-11T06:29:05.629Z,92.73
2023-02-11T06:31:32.094Z,93.08
2023-02-11T06:33:58.435Z,93.20
2023-02-11T06:36:25.056Z,93.11
2023-02-11T06:38:52.035Z,93.43
2023-02-11T06:41:19.893Z,92.61
2023-02-11T06:43:46.436Z,92.65
2023-02-11T06:46:13.151Z,93.35
2023-02-11T06:48:39.537Z,93.50
2023-02-11T06:51:08.468Z,93.14
2023-02-11T06:53:40.431Z,92.60
2023-02-11T06:56:09.875Z,92.49
2023-02-11T06:58:37.112Z,92.64
2023-02-11T07:01:08.550Z,93.21
2023-02-11T07:03:36.778Z,93.57
2023-02-11T07:06:04.129Z,93.23
2023-02-11T07:08:30.439Z,93.15
2023-02-11T07:10:56.740Z,93.50
2023-02-11T07:13:23.052Z,93.50
2023-02-11T07:15:49.708Z,93.15
2023-02-11T07:18:16.266Z,93.04
2023-02-11T07:20:42.824Z,93.37
2023-02-11T07:23:09.196Z,92.92
2023-02-11T07:25:36.080Z,93.43
2023-02-11T07:28:03.984Z,93.17
2023-02-11T07:30:30.340Z,93.35
2023-02-11T07:32:56.684Z,93.39
2023-02-11T07:35:22.992Z,93.59
2023-02-11T07:37:49.288Z,93.76
2023-02-11T07:40:15.670Z,93.89
2023-02-11T07:42:41.982Z,93.82
2023-02-11T07:45:08.738Z,93.63
2023-02-11T07:47:35.558Z,93.88
2023-02-11T07:50:01.880Z,93.53
2023-02-11T07:52:31.420Z,93.78
2023-02-11T07:54:57.734Z,93.99
2023-02-11T07:57:24.040Z,94.18
2023-02-11T07:59:50.335Z,94.30
2023-02-11T08:02:16.683Z,94.24
2023-02-11T08:04:42.988Z,93.77
2023-02-11T08:07:09.294Z,93.61
2023-02-11T08:09:35.645Z,93.85
2023-02-11T08:12:02.050Z,93.63
2023-02-11T08:14:28.354Z,93.54
2023-02-11T08:16:54.706Z,93.68
2023-02-11T08:19:21.066Z,93.56
2023-02-11T08:21:47.399Z,93.59
2023-02-11T08:24:13.735Z,93.89
2023-02-11T08:26:40.154Z,93.79
2023-02-11T08:29:10.793Z,93.54
2023-02-11T08:31:40.899Z,93.90
2023-02-11T08:34:07.245Z,93.48
2023-02-11T08:36:36.239Z,93.70
2023-02-11T08:39:18.470Z,93.89
2023-02-11T08:41:47.476Z,93.70
2023-02-11T08:44:13.905Z,93.70
2023-02-11T08:46:40.388Z,93.53
2023-02-11T08:49:06.692Z,93.70
2023-02-11T08:51:33.333Z,94.08
2023-02-11T08:54:00.731Z,93.92
2023-02-11T08:56:28.051Z,93.76
2023-02-11T08:58:54.822Z,93.70
2023-02-11T09:01:25.277Z,94.21
2023-02-11T09:03:51.736Z,93.98
2023-02-11T09:06:18.682Z,93.43
2023-02-11T09:08:48.516Z,93.58
2023-02-11T09:11:15.593Z,93.46
2023-02-11T09:13:43.584Z,92.67
2023-02-11T09:16:18.286Z,92.49
2023-02-11T09:18:44.696Z,93.05
2023-02-11T09:21:11.274Z,93.17
2023-02-11T09:23:37.596Z,92.86
2023-02-11T09:26:09.460Z,92.90
2023-02-11T09:28:35.986Z,92.98
2023-02-11T09:31:10.276Z,93.45
2023-02-11T09:33:38.615Z,92.79
2023-02-11T09:36:06.401Z,93.00
2023-02-11T09:38:33.221Z,92.96
2023-02-11T09:40:59.727Z,92.52
2023-02-11T09:43:53.873Z,92.50
2023-02-11T09:46:22.987Z,92.62
2023-02-11T09:48:51.736Z,92.95
2023-02-11T09:51:47.558Z,92.72
2023-02-11T09:54:23.180Z,93.14
2023-02-11T09:56:49.500Z,93.26
2023-02-11T09:59:16.634Z,92.44
2023-02-11T10:01:58.848Z,92.74
2023-02-11T10:04:59.346Z,93.18
2023-02-11T10:07:41.766Z,93.41
2023-02-11T10:10:35.172Z,92.90
2023-02-11T10:13:35.786Z,92.32
2023-02-11T10:16:40.628Z,92.33
2023-02-11T10:19:15.360Z,92.21
2023-02-11T10:21:57.411Z,91.97
2023-02-11T10:24:24.350Z,92.66
2023-02-11T10:26:51.748Z,92.77
2023-02-11T10:29:36.550Z,92.63
2023-02-11T10:32:10.991Z,92.74
2023-02-11T10:34:41.419Z,92.29
2023-02-11T10:37:12.845Z,92.52
2023-02-11T10:39:40.838Z,93.65
2023-02-11T10:42:11.693Z,94.06
2023-02-11T10:44:42.385Z,94.79
2023-02-11T10:47:18.675Z,94.18
2023-02-11T10:49:46.732Z,94.63
2023-02-11T10:52:17.433Z,94.22
2023-02-11T10:55:00.665Z,94.47
2023-02-11T10:57:40.514Z,94.67
2023-02-11T11:00:40.129Z,94.62
2023-02-11T11:03:19.919Z,94.38
2023-02-11T11:05:52.416Z,93.50
2023-02-11T11:08:19.535Z,92.99
2023-02-11T11:11:02.498Z,92.99
2023-02-11T11:13:34.916Z,93.48
2023-02-11T11:16:13.602Z,92.41
2023-02-11T11:18:41.650Z,91.89
2023-02-11T11:21:15.961Z,91.66
2023-02-11T11:23:49.995Z,91.92
2023-02-11T11:26:17.831Z,91.22
2023-02-11T11:28:54.760Z,91.08
2023-02-11T11:31:32.734Z,90.15
2023-02-11T11:34:03.460Z,90.43
2023-02-11T11:36:37.700Z,90.17
2023-02-11T11:39:24.683Z,89.90
2023-02-11T11:42:02.562Z,89.96
2023-02-11T11:44:35.246Z,89.73
2023-02-11T11:47:07.571Z,90.27
2023-02-11T11:49:41.630Z,91.16
2023-02-11T11:52:46.165Z,90.79
2023-02-11T11:55:22.629Z,90.38
2023-02-11T11:57:49.427Z,89.93
2023-02-11T12:00:20.775Z,89.26
2023-02-11T12:03:08.730Z,89.32
2023-02-11T12:05:44.129Z,90.41
2023-02-11T12:08:25.420Z,90.09
2023-02-11T12:11:16.582Z,89.66
2023-02-11T12:14:00.695Z,89.85
2023-02-11T12:16:50.830Z,89.97
2023-02-11T12:19:32.400Z,89.68
2023-02-11T12:22:26.469Z,90.58
2023-02-11T12:25:16.294Z,89.94
2023-02-11T12:27:45.354Z,90.81
2023-02-11T12:30:50.625Z,90.40
2023-02-11T12:34:07.998Z,90.67
2023-02-11T12:36:57.722Z,90.51
2023-02-11T12:39:44.231Z,90.66
2023-02-11T12:42:31.763Z,90.26
2023-02-11T12:45:08.745Z,90.17
2023-02-11T12:48:13.936Z,90.48
2023-02-11T12:50:54.857Z,90.64
2023-02-11T12:53:30.230Z,90.46
2023-02-11T12:56:04.724Z,88.85
2023-02-11T12:58:44.937Z,88.46
2023-02-11T13:01:24.520Z,88.41
2023-02-11T13:03:55.791Z,87.56
2023-02-11T13:06:29.141Z,87.16
2023-02-11T13:09:02.784Z,87.28
2023-02-11T13:11:40.169Z,86.87
2023-02-11T13:14:21.830Z,87.06
2023-02-11T13:16:50.532Z,86.83
2023-02-11T13:19:25.219Z,86.89
2023-02-11T13:22:04.067Z,86.64
2023-02-11T13:24:33.119Z,86.51
2023-02-11T13:27:24.681Z,86.48
2023-02-11T13:30:16.044Z,86.61
2023-02-11T13:32:54.677Z,86.61
2023-02-11T13:35:42.657Z,85.93
2023-02-11T13:38:19.722Z,86.30
2023-02-11T13:41:04.715Z,87.06
2023-02-11T13:43:33.621Z,87.46
2023-02-11T13:46:02.920Z,87.62
2023-02-11T13:48:33.254Z,88.37
2023-02-11T13:51:02.670Z,88.69
2023-02-11T13:53:29.733Z,88.71
2023-02-11T13:56:08.792Z,87.68
2023-02-11T13:58:49.571Z,87.92
2023-02-11T14:01:42.152Z,87.66
2023-02-11T14:04:23.193Z,87.89
2023-02-11T14:07:26.450Z,87.59
2023-02-11T14:09:52.771Z,87.79
2023-02-11T14:12:25.455Z,87.32
2023-02-11T14:15:18.873Z,87.39
2023-02-11T14:17:45.823Z,87.67
2023-02-11T14:20:32.948Z,88.15
2023-02-11T14:22:59.870Z,88.32
2023-02-11T14:25:26.846Z,87.50
2023-02-11T14:28:00.818Z,87.64
2023-02-11T14:30:34.690Z,87.71
2023-02-11T14:33:16.704Z,87.40
2023-02-11T14:36:05.219Z,87.71
2023-02-11T14:39:09.256Z,87.71
2023-02-11T14:41:41.564Z,88.25
2023-02-11T14:44:21.123Z,88.55
2023-02-11T14:46:49.821Z,88.22
2023-02-11T14:49:26.382Z,87.48
2023-02-11T14:51:56.282Z,88.37
2023-02-11T14:54:26.647Z,88.56
2023-02-11T14:57:16.102Z,89.19
2023-02-11T15:00:00.599Z,89.57
2023-02-11T15:02:34.755Z,89.39
2023-02-11T15:05:24.163Z,89.53
2023-02-11T15:07:54.103Z,90.01
2023-02-11T15:10:32.720Z,89.44
2023-02-11T15:13:00.706Z,90.02
2023-02-11T15:15:28.271Z,89.78
2023-02-11T15:17:58.019Z,90.25
2023-02-11T15:20:31.012Z,90.40
2023-02-11T15:23:07.556Z,91.13
2023-02-11T15:25:34.406Z,90.72
2023-02-11T15:28:00.972Z,89.95
2023-02-11T15:30:31.464Z,89.50
2023-02-11T15:33:00.521Z,89.27
2023-02-11T15:35:39.087Z,89.37
2023-02-11T15:38:05.749Z,89.79
2023-02-11T15:40:34.570Z,89.77
2023-02-11T15:43:03.089Z,89.99
2023-02-11T15:45:34.165Z,90.35
2023-02-11T15:48:14.213Z,90.42
2023-02-11T15:50:42.100Z,90.98
2023-02-11T15:53:56.547Z,91.23
2023-02-11T15:56:31.218Z,91.38
2023-02-11T15:59:00.179Z,91.21
2023-02-11T16:01:34.546Z,91.34
2023-02-11T16:04:02.077Z,91.82
2023-02-11T16:06:39.282Z,91.50
2023-02-11T16:09:23.289Z,91.51
2023-02-11T16:11:49.528Z,91.37
2023-02-11T16:14:27.936Z,90.91
2023-02-11T16:16:59.934Z,90.89
2023-02-11T16:19:28.317Z,90.85
2023-02-11T16:21:57.821Z,91.18
2023-02-11T16:24:31.842Z,91.39
2023-02-11T16:27:01.622Z,91.41
2023-02-11T16:29:36.215Z,91.00
2023-02-11T16:32:18.335Z,91.53
2023-02-11T16:34:45.082Z,92.02
2023-02-11T16:37:13.803Z,91.87
2023-02-11T16:39:40.600Z,91.80
2023-02-11T16:42:07.756Z,91.97
2023-02-11T16:44:35.167Z,91.78
2023-02-11T16:47:03.528Z,91.96
2023-02-11T16:49:32.890Z,91.74
2023-02-11T16:52:02.362Z,91.78
2023-02-11T16:54:29.515Z,91.68
2023-02-11T16:56:56.782Z,91.54
2023-02-11T16:59:23.389Z,91.42
2023-02-11T17:01:52.033Z,91.56
2023-02-11T17:04:29.791Z,91.90
2023-02-11T17:06:58.397Z,92.43
2023-02-11T17:09:30.356Z,91.89
2023-02-11T17:11:57.290Z,91.94
2023-02-11T17:14:23.581Z,92.07
2023-02-11T17:16:50.052Z,92.37
2023-02-11T17:19:22.158Z,92.60
2023-02-11T17:21:51.037Z,92.61
2023-02-11T17:24:18.563Z,92.48
2023-02-11T17:26:45.953Z,91.94
2023-02-11T17:29:16.660Z,91.88
2023-02-11T17:31:43.520Z,91.73
2023-02-11T17:34:10.510Z,91.90
2023-02-11T17:36:37.151Z,91.86
2023-02-11T17:39:07.695Z,92.48
2023-02-11T17:41:37.231Z,92.34
2023-02-11T17:44:04.128Z,92.41
2023-02-11T17:46:30.567Z,92.24
2023-02-11T17:48:59.080Z,92.21
2023-02-11T17:51:27.248Z,92.27
2023-02-11T17:53:53.972Z,92.15
2023-02-11T17:56:20.527Z,92.31
2023-02-11T17:58:47.569Z,92.08
2023-02-11T18:01:14.429Z,92.12
2023-02-11T18:03:40.810Z,92.30
2023-02-11T18:06:07.701Z,91.99
2023-02-11T18:08:35.335Z,91.99
2023-02-11T18:11:02.203Z,92.06
2023-02-11T18:13:29.751Z,92.30
2023-02-11T18:16:02.697Z,92.29
2023-02-11T18:18:29.148Z,92.44
2023-02-11T18:20:59.406Z,92.35
2023-02-11T18:23:26.271Z,92.52
2023-02-11T18:25:52.946Z,92.77
2023-02-11T18:28:19.691Z,93.08
2023-02-11T18:30:46.079Z,92.94
2023-02-11T18:33:12.731Z,92.63
2023-02-11T18:35:39.536Z,92.34
2023-02-11T18:38:05.900Z,92.62
2023-02-11T18:40:38.849Z,92.75
2023-02-11T18:43:08.116Z,92.82
2023-02-11T18:45:34.564Z,92.85
2023-02-11T18:48:00.906Z,92.77
2023-02-11T18:50:27.410Z,92.36
2023-02-11T18:52:53.717Z,92.27
2023-02-11T18:55:22.548Z,92.54
2023-02-11T18:57:49.813Z,92.93
2023-02-11T19:00:16.567Z,92.84
2023-02-11T19:02:42.863Z,92.96
2023-02-11T19:05:09.582Z,93.10
2023-02-11T19:07:35.965Z,93.22
2023-02-11T19:10:02.313Z,93.25
2023-02-11T19:12:28.596Z,92.92
2023-02-11T19:14:54.887Z,93.08
2023-02-11T19:17:21.234Z,93.60
2023-02-11T19:19:47.684Z,93.38
2023-02-11T19:22:13.974Z,93.37
2023-02-11T19:24:40.299Z,93.79
2023-02-11T19:27:06.607Z,94.11
2023-02-11T19:29:33.100Z,94.16
2023-02-11T19:31:59.483Z,93.53
2023-02-11T19:34:25.842Z,93.68
2023-02-11T19:36:52.632Z,93.99
2023-02-11T19:39:18.923Z,93.70
2023-02-11T19:41:45.302Z,93.71
2023-02-11T19:44:13.622Z,93.44
2023-02-11T19:46:40.245Z,94.03
2023-02-11T19:49:06.759Z,94.14
2023-02-11T19:51:33.732Z,94.04
2023-02-11T19:54:00.652Z,94.31
2023-02-11T19:56:27.591Z,94.08
2023-02-11T19:58:54.893Z,94.32
2023-02-11T20:01:22.731Z,94.02
2023-02-11T20:03:50.221Z,96.49
2023-02-11T20:06:19.904Z,96.72
2023-02-11T20:08:46.288Z,95.56
2023-02-11T20:11:16.985Z,94.83
2023-02-11T20:13:44.321Z,93.55
2023-02-11T20:16:16.280Z,92.62
2023-02-11T20:18:43.509Z,93.00
2023-02-11T20:21:16.123Z,93.38
2023-02-11T20:23:43.141Z,93.36
2023-02-11T20:26:13.074Z,93.95
2023-02-11T20:28:39.470Z,93.04
2023-02-11T20:31:06.864Z,91.56
2023-02-11T20:33:34.096Z,90.93
2023-02-11T20:36:07.624Z,90.98
2023-02-11T20:38:34.962Z,91.64
2023-02-11T20:41:11.446Z,92.03
2023-02-11T20:43:38.077Z,92.42
2023-02-11T20:46:06.012Z,92.70
2023-02-11T20:48:32.990Z,93.07
2023-02-11T20:51:04.345Z,92.73
2023-02-11T20:53:30.870Z,93.21
2023-02-11T20:56:00.488Z,93.56
2023-02-11T20:58:26.799Z,93.63
2023-02-11T21:00:53.234Z,93.43
2023-02-11T21:03:19.563Z,93.84
2023-02-11T21:05:45.913Z,93.75
2023-02-11T21:08:12.257Z,94.10
2023-02-11T21:10:38.612Z,94.42
2023-02-11T21:13:04.978Z,94.64
2023-02-11T21:15:31.342Z,94.72
2023-02-11T21:17:57.918Z,94.68
2023-02-11T21:20:24.314Z,94.45
2023-02-11T21:22:50.757Z,94.54
2023-02-11T21:25:17.492Z,94.35
2023-02-11T21:27:46.472Z,94.19
2023-02-11T21:30:13.409Z,94.04
2023-02-11T21:32:39.769Z,94.05
2023-02-11T21:35:06.839Z,94.64
2023-02-11T21:37:33.254Z,94.54
2023-02-11T21:39:59.863Z,93.73
2023-02-11T21:42:26.469Z,93.81
2023-02-11T21:44:52.800Z,93.47
2023-02-11T21:47:19.120Z,93.80
2023-02-11T21:49:45.427Z,93.19
2023-02-11T21:52:11.766Z,93.09
2023-02-11T21:54:38.115Z,93.47
2023-02-11T21:57:04.453Z,93.41
2023-02-11T21:59:30.826Z,93.38
2023-02-11T22:01:57.574Z,93.43
2023-02-11T22:04:24.239Z,93.57
2023-02-11T22:06:50.730Z,93.79
2023-02-11T22:09:17.285Z,94.09
2023-02-11T22:11:43.712Z,93.86
2023-02-11T22:14:10.178Z,93.83
2023-02-11T22:16:36.778Z,93.82
2023-02-11T22:19:03.379Z,93.69
2023-02-11T22:21:29.973Z,93.38
2023-02-11T22:23:56.700Z,93.67
2023-02-11T22:26:25.050Z,93.43
2023-02-11T22:28:52.126Z,92.86
2023-02-11T22:31:22.719Z,92.85
2023-02-11T22:33:49.722Z,92.95
2023-02-11T22:36:19.307Z,92.65
2023-02-11T22:38:45.717Z,92.70
2023-02-11T22:41:12.744Z,93.12
2023-02-11T22:43:39.632Z,92.76
2023-02-11T22:46:07.283Z,92.72
2023-02-11T22:48:35.179Z,92.67
2023-02-11T22:51:06.606Z,92.37
2023-02-11T22:53:33.257Z,92.40
2023-02-11T22:56:05.679Z,92.67
2023-02-11T22:58:32.414Z,93.12
2023-02-11T23:00:58.761Z,92.84
2023-02-11T23:03:25.259Z,92.82
2023-02-11T23:05:51.597Z,92.92
2023-02-11T23:08:18.246Z,93.12
2023-02-11T23:10:44.564Z,93.03
2023-02-11T23:13:10.887Z,92.91
2023-02-11T23:15:41.439Z,92.54
2023-02-11T23:18:09.049Z,92.24
2023-02-11T23:20:42.007Z,92.36
2023-02-11T23:23:08.750Z,92.82
2023-02-11T23:25:35.267Z,92.81
2023-02-11T23:28:01.683Z,92.95
2023-02-11T23:30:28.485Z,92.86
2023-02-11T23:32:54.805Z,92.46
2023-02-11T23:35:21.108Z,92.63
2023-02-11T23:37:48.452Z,92.66
2023-02-11T23:40:14.890Z,92.84
2023-02-11T23:42:41.510Z,93.08
2023-02-11T23:45:08.273Z,92.82
2023-02-11T23:47:35.051Z,92.78
2023-02-11T23:50:01.479Z,93.13
2023-02-11T23:52:27.787Z,93.10
2023-02-11T23:54:54.077Z,92.96
2023-02-11T23:57:20.401Z,93.42
2023-02-11T23:59:49.066Z,93.63
